sensor_id;sensor_type;location;lat;lon;timestamp;temperature;humidity
9118;DHT22;4594;50.994;7.126;2022-11-15T00:00:56;13.20;43.90
9118;DHT22;4594;50.994;7.126;2022-11-15T00:03:24;13.20;44.10
9118;DHT22;4594;50.994;7.126;2022-11-15T00:05:51;13.20;44.20
9118;DHT22;4594;50.994;7.126;2022-11-15T00:08:18;13.30;44.40
9118;DHT22;4594;50.994;7.126;2022-11-15T00:10:57;13.30;44.50
9118;DHT22;4594;50.994;7.126;2022-11-15T00:13:24;13.40;44.80
9118;DHT22;4594;50.994;7.126;2022-11-15T00:15:50;13.40;44.80
9118;DHT22;4594;50.994;7.126;2022-11-15T00:18:16;13.40;45.00
9118;DHT22;4594;50.994;7.126;2022-11-15T00:20:42;13.50;45.20
9118;DHT22;4594;50.994;7.126;2022-11-15T00:23:08;13.60;45.40
9118;DHT22;4594;50.994;7.126;2022-11-15T00:25:35;13.60;45.60
9118;DHT22;4594;50.994;7.126;2022-11-15T00:28:01;13.60;45.70
9118;DHT22;4594;50.994;7.126;2022-11-15T00:30:27;13.70;45.90
9118;DHT22;4594;50.994;7.126;2022-11-15T00:32:53;13.70;46.00
9118;DHT22;4594;50.994;7.126;2022-11-15T00:35:19;13.80;46.10
9118;DHT22;4594;50.994;7.126;2022-11-15T00:37:46;13.90;46.30
9118;DHT22;4594;50.994;7.126;2022-11-15T00:40:13;14.00;46.40
9118;DHT22;4594;50.994;7.126;2022-11-15T00:42:39;14.00;46.50
9118;DHT22;4594;50.994;7.126;2022-11-15T00:45:06;14.00;46.50
9118;DHT22;4594;50.994;7.126;2022-11-15T00:47:32;14.10;46.60
9118;DHT22;4594;50.994;7.126;2022-11-15T00:49:57;14.10;46.90
9118;DHT22;4594;50.994;7.126;2022-11-15T00:52:23;14.20;46.70
9118;DHT22;4594;50.994;7.126;2022-11-15T00:54:49;14.30;46.80
9118;DHT22;4594;50.994;7.126;2022-11-15T00:57:14;14.30;46.90
9118;DHT22;4594;50.994;7.126;2022-11-15T00:59:40;14.30;47.20
9118;DHT22;4594;50.994;7.126;2022-11-15T01:02:06;14.40;47.00
9118;DHT22;4594;50.994;7.126;2022-11-15T01:04:31;14.50;47.10
9118;DHT22;4594;50.994;7.126;2022-11-15T01:06:57;14.50;47.10
9118;DHT22;4594;50.994;7.126;2022-11-15T01:09:23;14.50;47.10
9118;DHT22;4594;50.994;7.126;2022-11-15T01:11:48;14.60;47.20
9118;DHT22;4594;50.994;7.126;2022-11-15T01:14:14;14.60;47.50
9118;DHT22;4594;50.994;7.126;2022-11-15T01:16:40;14.60;47.30
9118;DHT22;4594;50.994;7.126;2022-11-15T01:19:05;14.70;47.30
9118;DHT22;4594;50.994;7.126;2022-11-15T01:21:31;14.80;47.40
9118;DHT22;4594;50.994;7.126;2022-11-15T01:23:57;14.70;47.30
9118;DHT22;4594;50.994;7.126;2022-11-15T01:26:24;14.70;47.40
9118;DHT22;4594;50.994;7.126;2022-11-15T01:28:50;14.80;47.40
9118;DHT22;4594;50.994;7.126;2022-11-15T01:31:20;14.80;47.40
9118;DHT22;4594;50.994;7.126;2022-11-15T01:33:47;14.80;47.30
9118;DHT22;4594;50.994;7.126;2022-11-15T01:36:19;14.90;47.50
9118;DHT22;4594;50.994;7.126;2022-11-15T01:38:59;14.90;47.50
9118;DHT22;4594;50.994;7.126;2022-11-15T01:41:33;14.90;47.20
9118;DHT22;4594;50.994;7.126;2022-11-15T01:47:39;14.90;47.00
9118;DHT22;4594;50.994;7.126;2022-11-15T01:50:15;14.90;46.80
9118;DHT22;4594;50.994;7.126;2022-11-15T01:52:45;15.00;46.90
9118;DHT22;4594;50.994;7.126;2022-11-15T01:55:16;15.00;46.90
9118;DHT22;4594;50.994;7.126;2022-11-15T01:57:50;15.00;46.80
9118;DHT22;4594;50.994;7.126;2022-11-15T02:00:19;15.00;46.70
9118;DHT22;4594;50.994;7.126;2022-11-15T02:02:45;15.00;46.70
9118;DHT22;4594;50.994;7.126;2022-11-15T02:05:11;15.00;46.60
9118;DHT22;4594;50.994;7.126;2022-11-15T02:07:37;15.00;46.50
9118;DHT22;4594;50.994;7.126;2022-11-15T02:10:17;15.00;46.50
9118;DHT22;4594;50.994;7.126;2022-11-15T02:12:45;15.10;46.50
9118;DHT22;4594;50.994;7.126;2022-11-15T02:15:13;15.10;46.40
9118;DHT22;4594;50.994;7.126;2022-11-15T02:20:52;15.10;46.30
9118;DHT22;4594;50.994;7.126;2022-11-15T02:26:08;15.10;46.20
9118;DHT22;4594;50.994;7.126;2022-11-15T02:32:14;15.10;46.20
9118;DHT22;4594;50.994;7.126;2022-11-15T02:35:09;15.10;46.10
9118;DHT22;4594;50.994;7.126;2022-11-15T02:37:56;15.10;46.40
9118;DHT22;4594;50.994;7.126;2022-11-15T02:43:46;15.20;46.20
9118;DHT22;4594;50.994;7.126;2022-11-15T02:46:31;15.20;46.20
9118;DHT22;4594;50.994;7.126;2022-11-15T02:49:17;15.20;46.20
9118;DHT22;4594;50.994;7.126;2022-11-15T02:51:45;15.20;46.20
9118;DHT22;4594;50.994;7.126;2022-11-15T02:54:25;15.20;46.20
9118;DHT22;4594;50.994;7.126;2022-11-15T02:56:58;15.20;46.30
9118;DHT22;4594;50.994;7.126;2022-11-15T03:08:01;15.30;46.20
9118;DHT22;4594;50.994;7.126;2022-11-15T03:10:46;15.30;46.20
9118;DHT22;4594;50.994;7.126;2022-11-15T03:13:48;15.30;46.20
9118;DHT22;4594;50.994;7.126;2022-11-15T03:22:11;15.30;46.10
9118;DHT22;4594;50.994;7.126;2022-11-15T03:24:44;15.30;46.10
9118;DHT22;4594;50.994;7.126;2022-11-15T03:27:15;15.30;46.00
9118;DHT22;4594;50.994;7.126;2022-11-15T03:29:56;15.30;46.30
9118;DHT22;4594;50.994;7.126;2022-11-15T03:32:28;15.40;46.10
9118;DHT22;4594;50.994;7.126;2022-11-15T03:35:06;15.30;46.00
9118;DHT22;4594;50.994;7.126;2022-11-15T03:40:53;15.30;46.00
9118;DHT22;4594;50.994;7.126;2022-11-15T03:43:48;15.30;46.00
9118;DHT22;4594;50.994;7.126;2022-11-15T03:46:49;15.30;46.00
9118;DHT22;4594;50.994;7.126;2022-11-15T03:49:33;15.30;45.90
9118;DHT22;4594;50.994;7.126;2022-11-15T03:52:02;15.30;45.90
9118;DHT22;4594;50.994;7.126;2022-11-15T03:54:29;15.30;45.90
9118;DHT22;4594;50.994;7.126;2022-11-15T03:56:55;15.30;45.90
9118;DHT22;4594;50.994;7.126;2022-11-15T03:59:21;15.30;46.10
9118;DHT22;4594;50.994;7.126;2022-11-15T04:01:47;15.30;46.00
9118;DHT22;4594;50.994;7.126;2022-11-15T04:04:13;15.30;46.00
9118;DHT22;4594;50.994;7.126;2022-11-15T04:06:38;15.30;46.00
9118;DHT22;4594;50.994;7.126;2022-11-15T04:09:04;15.30;46.00
9118;DHT22;4594;50.994;7.126;2022-11-15T04:11:30;15.30;46.00
9118;DHT22;4594;50.994;7.126;2022-11-15T04:13:56;15.40;46.10
9118;DHT22;4594;50.994;7.126;2022-11-15T04:16:21;15.40;46.10
9118;DHT22;4594;50.994;7.126;2022-11-15T04:18:47;15.20;45.90
9118;DHT22;4594;50.994;7.126;2022-11-15T04:21:35;15.40;46.10
9118;DHT22;4594;50.994;7.126;2022-11-15T04:24:19;15.40;46.00
9118;DHT22;4594;50.994;7.126;2022-11-15T04:26:45;15.40;46.00
9118;DHT22;4594;50.994;7.126;2022-11-15T04:29:11;15.40;46.00
9118;DHT22;4594;50.994;7.126;2022-11-15T04:31:55;15.40;46.00
9118;DHT22;4594;50.994;7.126;2022-11-15T04:34:21;15.50;46.10
9118;DHT22;4594;50.994;7.126;2022-11-15T04:36:47;15.40;46.00
9118;DHT22;4594;50.994;7.126;2022-11-15T04:39:31;15.40;46.30
9118;DHT22;4594;50.994;7.126;2022-11-15T04:41:57;15.50;46.00
9118;DHT22;4594;50.994;7.126;2022-11-15T04:44:22;15.50;46.10
9118;DHT22;4594;50.994;7.126;2022-11-15T04:46:48;15.50;46.00
9118;DHT22;4594;50.994;7.126;2022-11-15T04:49:14;15.50;46.00
9118;DHT22;4594;50.994;7.126;2022-11-15T04:51:39;15.50;46.00
9118;DHT22;4594;50.994;7.126;2022-11-15T04:54:05;15.50;46.00
9118;DHT22;4594;50.994;7.126;2022-11-15T04:56:31;15.50;46.00
9118;DHT22;4594;50.994;7.126;2022-11-15T04:58:56;15.50;45.90
9118;DHT22;4594;50.994;7.126;2022-11-15T05:01:22;15.50;45.90
9118;DHT22;4594;50.994;7.126;2022-11-15T05:03:48;15.50;45.90
9118;DHT22;4594;50.994;7.126;2022-11-15T05:06:32;15.50;46.00
9118;DHT22;4594;50.994;7.126;2022-11-15T05:08:58;15.50;45.90
9118;DHT22;4594;50.994;7.126;2022-11-15T05:11:23;15.50;45.90
9118;DHT22;4594;50.994;7.126;2022-11-15T05:13:49;15.40;45.90
9118;DHT22;4594;50.994;7.126;2022-11-15T05:16:15;15.40;45.90
9118;DHT22;4594;50.994;7.126;2022-11-15T05:18:41;15.40;45.90
9118;DHT22;4594;50.994;7.126;2022-11-15T05:21:09;15.40;45.90
9118;DHT22;4594;50.994;7.126;2022-11-15T05:23:38;15.40;45.90
9118;DHT22;4594;50.994;7.126;2022-11-15T05:26:05;15.40;46.00
9118;DHT22;4594;50.994;7.126;2022-11-15T05:28:32;15.40;46.00
9118;DHT22;4594;50.994;7.126;2022-11-15T05:31:07;15.40;46.00
9118;DHT22;4594;50.994;7.126;2022-11-15T05:33:40;15.40;46.10
9118;DHT22;4594;50.994;7.126;2022-11-15T05:36:13;15.30;46.00
9118;DHT22;4594;50.994;7.126;2022-11-15T05:38:41;15.30;46.00
9118;DHT22;4594;50.994;7.126;2022-11-15T05:41:07;15.30;46.00
9118;DHT22;4594;50.994;7.126;2022-11-15T05:43:36;15.30;46.10
9118;DHT22;4594;50.994;7.126;2022-11-15T05:46:04;15.40;46.20
9118;DHT22;4594;50.994;7.126;2022-11-15T05:48:31;15.40;46.10
9118;DHT22;4594;50.994;7.126;2022-11-15T05:50:59;15.30;46.00
9118;DHT22;4594;50.994;7.126;2022-11-15T05:53:26;15.40;46.10
9118;DHT22;4594;50.994;7.126;2022-11-15T05:55:51;15.30;46.00
9118;DHT22;4594;50.994;7.126;2022-11-15T05:58:18;15.30;46.00
9118;DHT22;4594;50.994;7.126;2022-11-15T06:00:45;15.30;45.90
9118;DHT22;4594;50.994;7.126;2022-11-15T06:03:11;15.30;45.90
9118;DHT22;4594;50.994;7.126;2022-11-15T06:05:39;15.30;45.80
9118;DHT22;4594;50.994;7.126;2022-11-15T06:08:05;15.30;45.80
9118;DHT22;4594;50.994;7.126;2022-11-15T06:10:32;15.20;45.70
9118;DHT22;4594;50.994;7.126;2022-11-15T06:13:02;15.30;45.80
9118;DHT22;4594;50.994;7.126;2022-11-15T06:15:29;15.20;45.60
9118;DHT22;4594;50.994;7.126;2022-11-15T06:17:58;15.10;45.50
9118;DHT22;4594;50.994;7.126;2022-11-15T06:20:25;15.20;45.60
9118;DHT22;4594;50.994;7.126;2022-11-15T06:22:57;15.10;45.50
9118;DHT22;4594;50.994;7.126;2022-11-15T06:25:26;15.00;45.50
9118;DHT22;4594;50.994;7.126;2022-11-15T06:27:53;14.90;45.40
9118;DHT22;4594;50.994;7.126;2022-11-15T06:30:22;14.90;45.50
9118;DHT22;4594;50.994;7.126;2022-11-15T06:32:48;14.70;45.30
9118;DHT22;4594;50.994;7.126;2022-11-15T06:35:14;14.90;45.50
9118;DHT22;4594;50.994;7.126;2022-11-15T06:37:41;14.80;45.50
9118;DHT22;4594;50.994;7.126;2022-11-15T06:40:09;14.80;45.50
9118;DHT22;4594;50.994;7.126;2022-11-15T06:42:36;14.80;45.60
9118;DHT22;4594;50.994;7.126;2022-11-15T06:45:01;14.70;45.50
9118;DHT22;4594;50.994;7.126;2022-11-15T06:47:27;14.70;45.50
9118;DHT22;4594;50.994;7.126;2022-11-15T06:49:53;14.70;45.50
9118;DHT22;4594;50.994;7.126;2022-11-15T06:52:19;14.70;45.50
9118;DHT22;4594;50.994;7.126;2022-11-15T06:54:45;14.70;45.50
9118;DHT22;4594;50.994;7.126;2022-11-15T06:57:11;14.60;45.50
9118;DHT22;4594;50.994;7.126;2022-11-15T06:59:37;14.60;45.50
9118;DHT22;4594;50.994;7.126;2022-11-15T07:02:03;14.60;45.50
9118;DHT22;4594;50.994;7.126;2022-11-15T07:04:28;14.50;45.40
9118;DHT22;4594;50.994;7.126;2022-11-15T07:06:54;14.50;45.40
9118;DHT22;4594;50.994;7.126;2022-11-15T07:09:20;14.50;45.40
9118;DHT22;4594;50.994;7.126;2022-11-15T07:11:46;14.40;45.40
9118;DHT22;4594;50.994;7.126;2022-11-15T07:14:11;14.30;45.30
9118;DHT22;4594;50.994;7.126;2022-11-15T07:16:37;14.40;45.40
9118;DHT22;4594;50.994;7.126;2022-11-15T07:19:03;14.40;45.40
9118;DHT22;4594;50.994;7.126;2022-11-15T07:21:29;14.30;45.40
9118;DHT22;4594;50.994;7.126;2022-11-15T07:23:55;14.30;45.40
9118;DHT22;4594;50.994;7.126;2022-11-15T07:26:20;14.40;45.50
9118;DHT22;4594;50.994;7.126;2022-11-15T07:28:46;14.30;45.40
9118;DHT22;4594;50.994;7.126;2022-11-15T07:31:12;14.30;45.50
9118;DHT22;4594;50.994;7.126;2022-11-15T07:33:37;14.30;45.50
9118;DHT22;4594;50.994;7.126;2022-11-15T07:36:05;14.30;45.50
9118;DHT22;4594;50.994;7.126;2022-11-15T07:38:32;14.30;45.50
9118;DHT22;4594;50.994;7.126;2022-11-15T07:41:02;14.40;45.60
9118;DHT22;4594;50.994;7.126;2022-11-15T07:43:29;14.40;45.60
9118;DHT22;4594;50.994;7.126;2022-11-15T07:45:56;14.40;45.60
9118;DHT22;4594;50.994;7.126;2022-11-15T07:48:22;14.40;45.50
9118;DHT22;4594;50.994;7.126;2022-11-15T07:50:48;14.50;45.50
9118;DHT22;4594;50.994;7.126;2022-11-15T07:53:14;14.50;45.70
9118;DHT22;4594;50.994;7.126;2022-11-15T07:55:41;14.60;45.80
9118;DHT22;4594;50.994;7.126;2022-11-15T07:58:09;14.70;45.90
9118;DHT22;4594;50.994;7.126;2022-11-15T08:00:36;14.80;46.10
9118;DHT22;4594;50.994;7.126;2022-11-15T08:03:14;14.90;46.20
9118;DHT22;4594;50.994;7.126;2022-11-15T08:05:41;15.10;46.00
9118;DHT22;4594;50.994;7.126;2022-11-15T08:08:10;15.20;46.10
9118;DHT22;4594;50.994;7.126;2022-11-15T08:10:37;15.30;46.00
9118;DHT22;4594;50.994;7.126;2022-11-15T08:13:10;15.40;45.80
9118;DHT22;4594;50.994;7.126;2022-11-15T08:15:37;15.40;45.50
9118;DHT22;4594;50.994;7.126;2022-11-15T08:18:05;15.60;45.60
9118;DHT22;4594;50.994;7.126;2022-11-15T08:20:35;15.60;45.40
9118;DHT22;4594;50.994;7.126;2022-11-15T08:23:02;15.80;45.40
9118;DHT22;4594;50.994;7.126;2022-11-15T08:25:30;15.70;45.10
9118;DHT22;4594;50.994;7.126;2022-11-15T08:27:59;15.80;45.10
9118;DHT22;4594;50.994;7.126;2022-11-15T08:30:27;15.70;45.00
9118;DHT22;4594;50.994;7.126;2022-11-15T08:32:53;15.80;45.00
9118;DHT22;4594;50.994;7.126;2022-11-15T08:35:21;15.90;45.00
9118;DHT22;4594;50.994;7.126;2022-11-15T08:37:47;15.90;44.80
9118;DHT22;4594;50.994;7.126;2022-11-15T08:40:13;15.90;44.70
9118;DHT22;4594;50.994;7.126;2022-11-15T08:42:39;15.90;44.60
9118;DHT22;4594;50.994;7.126;2022-11-15T08:45:07;16.00;44.60
9118;DHT22;4594;50.994;7.126;2022-11-15T08:47:34;16.00;44.60
9118;DHT22;4594;50.994;7.126;2022-11-15T08:50:00;16.00;44.50
9118;DHT22;4594;50.994;7.126;2022-11-15T08:52:26;16.00;44.40
9118;DHT22;4594;50.994;7.126;2022-11-15T08:54:51;16.10;44.50
9118;DHT22;4594;50.994;7.126;2022-11-15T08:57:17;16.10;44.60
9118;DHT22;4594;50.994;7.126;2022-11-15T08:59:43;16.20;44.60
9118;DHT22;4594;50.994;7.126;2022-11-15T09:02:13;16.20;44.60
9118;DHT22;4594;50.994;7.126;2022-11-15T09:04:40;16.30;44.60
9118;DHT22;4594;50.994;7.126;2022-11-15T09:07:09;16.40;44.80
9118;DHT22;4594;50.994;7.126;2022-11-15T09:09:36;16.40;44.70
9118;DHT22;4594;50.994;7.126;2022-11-15T09:12:03;16.50;44.70
9118;DHT22;4594;50.994;7.126;2022-11-15T09:14:30;16.60;44.80
9118;DHT22;4594;50.994;7.126;2022-11-15T09:16:56;16.70;44.90
9118;DHT22;4594;50.994;7.126;2022-11-15T09:19:22;16.80;44.90
9118;DHT22;4594;50.994;7.126;2022-11-15T09:21:47;16.90;45.00
9118;DHT22;4594;50.994;7.126;2022-11-15T09:24:13;17.00;44.90
9118;DHT22;4594;50.994;7.126;2022-11-15T09:26:40;17.10;44.90
9118;DHT22;4594;50.994;7.126;2022-11-15T09:29:06;17.20;44.70
9118;DHT22;4594;50.994;7.126;2022-11-15T09:31:32;17.30;44.60
9118;DHT22;4594;50.994;7.126;2022-11-15T09:33:58;17.40;44.50
9118;DHT22;4594;50.994;7.126;2022-11-15T09:36:23;17.50;44.40
9118;DHT22;4594;50.994;7.126;2022-11-15T09:38:49;17.60;44.40
9118;DHT22;4594;50.994;7.126;2022-11-15T09:47:25;18.10;44.00
9118;DHT22;4594;50.994;7.126;2022-11-15T09:50:10;18.20;43.70
9118;DHT22;4594;50.994;7.126;2022-11-15T09:52:41;18.40;43.60
9118;DHT22;4594;50.994;7.126;2022-11-15T09:55:11;18.50;43.70
9118;DHT22;4594;50.994;7.126;2022-11-15T09:57:57;18.60;43.40
9118;DHT22;4594;50.994;7.126;2022-11-15T10:00:40;18.60;42.60
9118;DHT22;4594;50.994;7.126;2022-11-15T10:03:35;18.70;42.50
9118;DHT22;4594;50.994;7.126;2022-11-15T10:06:05;18.70;41.70
9118;DHT22;4594;50.994;7.126;2022-11-15T10:08:53;18.80;42.50
9118;DHT22;4594;50.994;7.126;2022-11-15T10:11:29;18.80;41.30
9118;DHT22;4594;50.994;7.126;2022-11-15T10:14:00;18.80;41.80
9118;DHT22;4594;50.994;7.126;2022-11-15T10:20:22;18.80;40.80
9118;DHT22;4594;50.994;7.126;2022-11-15T10:22:53;18.70;40.80
9118;DHT22;4594;50.994;7.126;2022-11-15T10:25:24;18.70;41.30
9118;DHT22;4594;50.994;7.126;2022-11-15T10:27:57;18.70;41.20
9118;DHT22;4594;50.994;7.126;2022-11-15T10:30:32;18.70;40.60
9118;DHT22;4594;50.994;7.126;2022-11-15T10:33:23;18.70;40.50
9118;DHT22;4594;50.994;7.126;2022-11-15T10:43:43;18.70;40.20
9118;DHT22;4594;50.994;7.126;2022-11-15T10:46:23;18.60;39.70
9118;DHT22;4594;50.994;7.126;2022-11-15T10:48:50;18.50;39.00
9118;DHT22;4594;50.994;7.126;2022-11-15T10:51:29;18.40;39.40
9118;DHT22;4594;50.994;7.126;2022-11-15T10:53:57;18.40;39.10
9118;DHT22;4594;50.994;7.126;2022-11-15T10:56:26;18.30;39.00
9118;DHT22;4594;50.994;7.126;2022-11-15T10:58:57;18.30;38.90
9118;DHT22;4594;50.994;7.126;2022-11-15T11:01:27;18.30;38.40
9118;DHT22;4594;50.994;7.126;2022-11-15T11:04:06;18.20;38.60
9118;DHT22;4594;50.994;7.126;2022-11-15T11:06:58;18.10;37.30
9118;DHT22;4594;50.994;7.126;2022-11-15T11:09:38;18.10;37.90
9118;DHT22;4594;50.994;7.126;2022-11-15T11:12:10;18.10;37.70
9118;DHT22;4594;50.994;7.126;2022-11-15T11:14:38;17.90;37.80
9118;DHT22;4594;50.994;7.126;2022-11-15T11:17:27;17.90;38.00
9118;DHT22;4594;50.994;7.126;2022-11-15T11:20:20;17.90;37.60
9118;DHT22;4594;50.994;7.126;2022-11-15T11:37:17;17.70;37.10
9118;DHT22;4594;50.994;7.126;2022-11-15T11:43:11;17.60;37.10
9118;DHT22;4594;50.994;7.126;2022-11-15T11:46:14;17.50;36.90
9118;DHT22;4594;50.994;7.126;2022-11-15T11:48:59;17.40;36.40
9118;DHT22;4594;50.994;7.126;2022-11-15T11:51:38;17.40;36.60
9118;DHT22;4594;50.994;7.126;2022-11-15T11:54:14;17.30;36.80
9118;DHT22;4594;50.994;7.126;2022-11-15T11:56:45;17.30;36.80
9118;DHT22;4594;50.994;7.126;2022-11-15T12:02:35;17.20;36.50
9118;DHT22;4594;50.994;7.126;2022-11-15T12:05:39;17.10;36.50
9118;DHT22;4594;50.994;7.126;2022-11-15T12:11:30;17.10;36.50
9118;DHT22;4594;50.994;7.126;2022-11-15T12:14:16;17.10;36.60
9118;DHT22;4594;50.994;7.126;2022-11-15T12:16:50;17.00;36.60
9118;DHT22;4594;50.994;7.126;2022-11-15T12:19:16;17.00;36.90
9118;DHT22;4594;50.994;7.126;2022-11-15T12:24:22;17.00;36.70
9118;DHT22;4594;50.994;7.126;2022-11-15T12:30:12;17.00;36.40
9118;DHT22;4594;50.994;7.126;2022-11-15T12:32:54;17.00;36.60
9118;DHT22;4594;50.994;7.126;2022-11-15T12:35:42;17.00;36.60
9118;DHT22;4594;50.994;7.126;2022-11-15T12:38:12;17.10;36.70
9118;DHT22;4594;50.994;7.126;2022-11-15T12:41:15;16.90;36.70
9118;DHT22;4594;50.994;7.126;2022-11-15T12:43:44;17.10;36.70
9118;DHT22;4594;50.994;7.126;2022-11-15T13:12:56;17.40;37.10
9118;DHT22;4594;50.994;7.126;2022-11-15T13:21:00;17.40;37.10
9118;DHT22;4594;50.994;7.126;2022-11-15T13:23:26;17.40;37.20
9118;DHT22;4594;50.994;7.126;2022-11-15T13:26:12;17.40;37.20
9118;DHT22;4594;50.994;7.126;2022-11-15T13:28:47;17.40;36.90
9118;DHT22;4594;50.994;7.126;2022-11-15T13:33:51;17.30;37.10
9118;DHT22;4594;50.994;7.126;2022-11-15T13:36:27;17.30;37.20
9118;DHT22;4594;50.994;7.126;2022-11-15T13:38:56;17.30;37.00
9118;DHT22;4594;50.994;7.126;2022-11-15T13:41:47;17.30;37.20
9118;DHT22;4594;50.994;7.126;2022-11-15T13:44:28;17.30;37.10
9118;DHT22;4594;50.994;7.126;2022-11-15T13:47:13;17.30;37.10
9118;DHT22;4594;50.994;7.126;2022-11-15T13:49:41;17.30;37.10
9118;DHT22;4594;50.994;7.126;2022-11-15T13:52:10;17.30;37.30
9118;DHT22;4594;50.994;7.126;2022-11-15T13:54:43;17.30;37.30
9118;DHT22;4594;50.994;7.126;2022-11-15T13:57:30;17.20;37.20
9118;DHT22;4594;50.994;7.126;2022-11-15T14:03:12;17.20;37.10
9118;DHT22;4594;50.994;7.126;2022-11-15T14:05:45;17.20;37.10
9118;DHT22;4594;50.994;7.126;2022-11-15T14:08:28;17.30;37.30
9118;DHT22;4594;50.994;7.126;2022-11-15T14:11:18;17.20;37.20
9118;DHT22;4594;50.994;7.126;2022-11-15T14:19:44;17.10;37.20
9118;DHT22;4594;50.994;7.126;2022-11-15T14:22:16;17.10;37.20
9118;DHT22;4594;50.994;7.126;2022-11-15T14:25:03;17.10;37.20
9118;DHT22;4594;50.994;7.126;2022-11-15T14:27:38;17.10;37.10
9118;DHT22;4594;50.994;7.126;2022-11-15T14:30:05;17.10;37.20
9118;DHT22;4594;50.994;7.126;2022-11-15T14:32:49;17.10;37.20
9118;DHT22;4594;50.994;7.126;2022-11-15T14:35:18;17.10;37.10
9118;DHT22;4594;50.994;7.126;2022-11-15T14:37:46;17.00;37.20
9118;DHT22;4594;50.994;7.126;2022-11-15T14:40:15;17.00;37.20
9118;DHT22;4594;50.994;7.126;2022-11-15T14:42:48;17.00;37.20
9118;DHT22;4594;50.994;7.126;2022-11-15T14:45:17;17.00;37.20
9118;DHT22;4594;50.994;7.126;2022-11-15T14:47:44;17.00;37.20
9118;DHT22;4594;50.994;7.126;2022-11-15T14:50:15;17.00;37.20
9118;DHT22;4594;50.994;7.126;2022-11-15T14:52:43;17.00;37.20
9118;DHT22;4594;50.994;7.126;2022-11-15T14:55:26;17.00;37.20
9118;DHT22;4594;50.994;7.126;2022-11-15T14:57:57;17.00;37.10
9118;DHT22;4594;50.994;7.126;2022-11-15T15:00:28;16.90;37.10
9118;DHT22;4594;50.994;7.126;2022-11-15T15:02:58;16.90;37.20
9118;DHT22;4594;50.994;7.126;2022-11-15T15:05:39;16.90;37.20
9118;DHT22;4594;50.994;7.126;2022-11-15T15:08:06;16.90;37.40
9118;DHT22;4594;50.994;7.126;2022-11-15T15:10:38;16.90;37.20
9118;DHT22;4594;50.994;7.126;2022-11-15T15:13:18;16.90;37.10
9118;DHT22;4594;50.994;7.126;2022-11-15T15:15:46;16.90;37.10
9118;DHT22;4594;50.994;7.126;2022-11-15T15:18:13;16.80;37.10
9118;DHT22;4594;50.994;7.126;2022-11-15T15:20:39;16.80;37.10
9118;DHT22;4594;50.994;7.126;2022-11-15T15:23:16;16.80;37.10
9118;DHT22;4594;50.994;7.126;2022-11-15T15:25:43;16.80;37.10
9118;DHT22;4594;50.994;7.126;2022-11-15T15:28:11;16.70;37.10
9118;DHT22;4594;50.994;7.126;2022-11-15T15:30:37;16.70;37.10
9118;DHT22;4594;50.994;7.126;2022-11-15T15:33:02;16.70;37.10
9118;DHT22;4594;50.994;7.126;2022-11-15T15:35:31;16.70;37.10
9118;DHT22;4594;50.994;7.126;2022-11-15T15:37:59;16.60;37.00
9118;DHT22;4594;50.994;7.126;2022-11-15T15:40:27;16.60;37.10
9118;DHT22;4594;50.994;7.126;2022-11-15T15:42:54;16.60;37.10
9118;DHT22;4594;50.994;7.126;2022-11-15T15:45:20;16.60;37.10
9118;DHT22;4594;50.994;7.126;2022-11-15T15:47:46;16.50;37.00
9118;DHT22;4594;50.994;7.126;2022-11-15T15:52:47;16.50;37.10
9118;DHT22;4594;50.994;7.126;2022-11-15T15:55:14;16.40;37.10
9118;DHT22;4594;50.994;7.126;2022-11-15T15:57:40;16.40;37.10
9118;DHT22;4594;50.994;7.126;2022-11-15T16:00:06;16.40;37.20
9118;DHT22;4594;50.994;7.126;2022-11-15T16:02:32;16.40;37.20
9118;DHT22;4594;50.994;7.126;2022-11-15T16:04:58;16.50;37.30
9118;DHT22;4594;50.994;7.126;2022-11-15T16:07:23;16.40;37.30
9118;DHT22;4594;50.994;7.126;2022-11-15T16:09:50;16.40;37.30
9118;DHT22;4594;50.994;7.126;2022-11-15T16:12:28;16.40;37.30
9118;DHT22;4594;50.994;7.126;2022-11-15T16:14:59;16.40;37.30
9118;DHT22;4594;50.994;7.126;2022-11-15T16:17:28;16.40;37.30
9118;DHT22;4594;50.994;7.126;2022-11-15T16:19:57;16.30;37.30
9118;DHT22;4594;50.994;7.126;2022-11-15T16:22:23;16.30;37.30
9118;DHT22;4594;50.994;7.126;2022-11-15T16:24:49;16.30;37.50
9118;DHT22;4594;50.994;7.126;2022-11-15T16:27:16;16.30;37.40
9118;DHT22;4594;50.994;7.126;2022-11-15T16:29:43;16.30;37.40
9118;DHT22;4594;50.994;7.126;2022-11-15T16:32:09;16.30;37.40
9118;DHT22;4594;50.994;7.126;2022-11-15T16:34:36;16.30;37.40
9118;DHT22;4594;50.994;7.126;2022-11-15T16:37:01;16.30;37.40
9118;DHT22;4594;50.994;7.126;2022-11-15T16:39:27;16.30;37.40
9118;DHT22;4594;50.994;7.126;2022-11-15T16:41:56;16.30;37.40
9118;DHT22;4594;50.994;7.126;2022-11-15T16:44:22;16.30;37.50
9118;DHT22;4594;50.994;7.126;2022-11-15T16:46:49;16.30;37.50
9118;DHT22;4594;50.994;7.126;2022-11-15T16:49:20;16.40;37.50
9118;DHT22;4594;50.994;7.126;2022-11-15T16:51:47;16.30;37.50
9118;DHT22;4594;50.994;7.126;2022-11-15T16:54:14;16.30;37.50
9118;DHT22;4594;50.994;7.126;2022-11-15T16:56:41;16.30;37.50
9118;DHT22;4594;50.994;7.126;2022-11-15T16:59:10;16.40;37.60
9118;DHT22;4594;50.994;7.126;2022-11-15T17:01:41;16.30;37.50
9118;DHT22;4594;50.994;7.126;2022-11-15T17:04:16;16.40;37.60
9118;DHT22;4594;50.994;7.126;2022-11-15T17:06:44;16.40;37.60
9118;DHT22;4594;50.994;7.126;2022-11-15T17:09:19;16.40;37.50
9118;DHT22;4594;50.994;7.126;2022-11-15T17:11:50;16.40;37.50
9118;DHT22;4594;50.994;7.126;2022-11-15T17:14:16;16.40;37.50
9118;DHT22;4594;50.994;7.126;2022-11-15T17:16:42;16.40;37.50
9118;DHT22;4594;50.994;7.126;2022-11-15T17:19:16;16.40;37.50
9118;DHT22;4594;50.994;7.126;2022-11-15T17:21:44;16.40;37.50
9118;DHT22;4594;50.994;7.126;2022-11-15T17:24:10;16.40;37.50
9118;DHT22;4594;50.994;7.126;2022-11-15T17:26:37;16.40;37.50
9118;DHT22;4594;50.994;7.126;2022-11-15T17:29:04;16.40;37.60
9118;DHT22;4594;50.994;7.126;2022-11-15T17:31:33;16.40;37.60
9118;DHT22;4594;50.994;7.126;2022-11-15T17:34:00;16.40;37.60
9118;DHT22;4594;50.994;7.126;2022-11-15T17:36:27;16.40;37.60
9118;DHT22;4594;50.994;7.126;2022-11-15T17:38:53;16.40;37.60
9118;DHT22;4594;50.994;7.126;2022-11-15T17:41:19;16.40;37.70
9118;DHT22;4594;50.994;7.126;2022-11-15T17:43:45;16.40;37.70
9118;DHT22;4594;50.994;7.126;2022-11-15T17:46:13;16.40;37.70
9118;DHT22;4594;50.994;7.126;2022-11-15T17:48:41;16.40;38.10
9118;DHT22;4594;50.994;7.126;2022-11-15T17:51:10;16.40;37.80
9118;DHT22;4594;50.994;7.126;2022-11-15T17:53:41;16.30;37.80
9118;DHT22;4594;50.994;7.126;2022-11-15T17:56:11;16.40;37.80
9118;DHT22;4594;50.994;7.126;2022-11-15T17:58:38;16.40;37.90
9118;DHT22;4594;50.994;7.126;2022-11-15T18:03:38;16.30;38.00
9118;DHT22;4594;50.994;7.126;2022-11-15T18:06:05;16.30;38.00
9118;DHT22;4594;50.994;7.126;2022-11-15T18:08:34;16.30;38.10
9118;DHT22;4594;50.994;7.126;2022-11-15T18:11:08;16.20;38.30
9118;DHT22;4594;50.994;7.126;2022-11-15T18:13:37;16.20;38.60
9118;DHT22;4594;50.994;7.126;2022-11-15T18:16:06;16.10;38.70
9118;DHT22;4594;50.994;7.126;2022-11-15T18:18:35;16.00;38.80
9118;DHT22;4594;50.994;7.126;2022-11-15T18:21:06;15.90;39.00
9118;DHT22;4594;50.994;7.126;2022-11-15T18:23:41;15.90;39.30
9118;DHT22;4594;50.994;7.126;2022-11-15T18:26:10;15.80;39.30
9118;DHT22;4594;50.994;7.126;2022-11-15T18:28:42;15.70;39.50
9118;DHT22;4594;50.994;7.126;2022-11-15T18:31:18;15.60;39.60
9118;DHT22;4594;50.994;7.126;2022-11-15T18:33:46;15.60;39.90